Time;durP1;ratioP1;P1;durP2;ratioP2;P2;SDS_P1;SDS_P2;PMS_P1;PMS_P2;Temp;Humidity;BMP_temperature;BMP_pressure;BME280_temperature;BME280_humidity;BME280_pressure;Samples;Min_cycle;Max_cycle;Signal;HPM_P1;HPM_P2
2022/01/23 07:00:35;;;;;;;27.40;11.85;;;;;;;;;;5898573;23;20130;31
2022/01/23 07:03:02;;;;;;;23.58;11.25;;;;;;;;;;4814075;29;20066;-86
2022/01/23 07:05:29;;;;;;;30.77;11.82;;;;;;;;;;4816850;29;20382;-86
2022/01/23 07:07:55;;;;;;;24.92;11.88;;;;;;;;;;4800372;29;20105;-85
2022/01/23 07:10:24;;;;;;;23.60;10.75;;;;;;;;;;4816812;29;20103;-84
2022/01/23 07:12:51;;;;;;;26.67;10.98;;;;;;;;;;4818115;29;20107;-85
2022/01/23 07:15:18;;;;;;;30.10;12.07;;;;;;;;;;4817706;29;20515;-84
2022/01/23 07:17:45;;;;;;;21.05;11.52;;;;;;;;;;4819002;29;20054;-85
2022/01/23 07:20:11;;;;;;;22.35;12.15;;;;;;;;;;4817858;29;20063;-86
2022/01/23 07:22:38;;;;;;;31.80;11.93;;;;;;;;;;4821144;29;20055;-86
2022/01/23 07:25:06;;;;;;;32.15;11.85;;;;;;;;;;4818409;29;20050;-86
2022/01/23 07:27:48;;;;;;;26.88;11.52;;;;;;;;;;4820281;29;20107;-86
2022/01/23 07:30:52;;;;;;;23.73;12.05;;;;;;;;;;4817232;29;20548;-87
2022/01/23 07:33:08;;;;;;;32.30;12.70;;;;;;;;;;4809729;29;20092;-87
2022/01/23 07:35:34;;;;;;;24.73;11.45;;;;;;;;;;4817601;29;20054;-86
2022/01/23 07:38:01;;;;;;;31.95;14.05;;;;;;;;;;4805997;29;20058;-85
2022/01/23 07:40:28;;;;;;;21.50;11.95;;;;;;;;;;4824289;29;20111;-86
2022/01/23 07:42:55;;;;;;;28.55;12.57;;;;;;;;;;4821361;29;20566;-87
2022/01/23 07:45:21;;;;;;;29.08;13.23;;;;;;;;;;4810749;29;20043;-87
2022/01/23 07:47:48;;;;;;;31.30;14.13;;;;;;;;;;4812166;29;20051;-86
2022/01/23 07:50:16;;;;;;;33.10;13.32;;;;;;;;;;4820573;29;20070;-87
2022/01/23 07:52:43;;;;;;;28.63;13.27;;;;;;;;;;4823089;29;20133;-86
2022/01/23 07:55:13;;;;;;;27.95;13.48;;;;;;;;;;4806264;29;20113;-86
2022/01/23 07:57:42;;;;;;;30.45;13.20;;;;;;;;;;4822461;29;20061;-86
2022/01/23 08:00:11;;;;;;;28.77;13.77;;;;;;;;;;4822708;29;20062;-86
2022/01/23 08:02:38;;;;;;;22.83;14.43;;;;;;;;;;4804810;29;20118;-85
2022/01/23 08:05:05;;;;;;;32.47;13.82;;;;;;;;;;4820930;29;20784;-83
2022/01/23 08:07:36;;;;;;;26.02;12.85;;;;;;;;;;4822784;29;20141;-86
2022/01/23 08:10:07;;;;;;;27.60;14.00;;;;;;;;;;4821944;29;20079;-86
2022/01/23 08:12:35;;;;;;;29.95;14.18;;;;;;;;;;4819675;29;20309;-85
2022/01/23 08:15:04;;;;;;;29.40;14.18;;;;;;;;;;4804780;29;20050;-86
2022/01/23 08:17:32;;;;;;;30.33;14.55;;;;;;;;;;4820046;29;20076;-86
2022/01/23 08:20:00;;;;;;;27.77;14.80;;;;;;;;;;4820743;29;20132;-83
2022/01/23 08:22:29;;;;;;;27.17;15.50;;;;;;;;;;4821582;29;20075;-83
2022/01/23 08:24:57;;;;;;;35.40;16.45;;;;;;;;;;4819169;29;20082;-85
2022/01/23 08:27:25;;;;;;;35.47;15.33;;;;;;;;;;4821024;29;20075;-82
2022/01/23 08:29:57;;;;;;;31.05;15.45;;;;;;;;;;4820189;29;20053;-84
2022/01/23 08:32:24;;;;;;;38.20;16.10;;;;;;;;;;4818710;29;20817;-85
2022/01/23 08:34:51;;;;;;;28.52;14.70;;;;;;;;;;4804889;29;20046;-86
2022/01/23 08:37:20;;;;;;;35.75;15.38;;;;;;;;;;4801972;29;20058;-86
2022/01/23 08:39:46;;;;;;;34.78;16.88;;;;;;;;;;4814580;29;20099;-87
2022/01/23 08:42:16;;;;;;;35.70;16.00;;;;;;;;;;4796462;29;20073;-82
2022/01/23 08:44:45;;;;;;;38.47;16.77;;;;;;;;;;4813927;29;20042;-84
2022/01/23 08:47:12;;;;;;;30.25;16.20;;;;;;;;;;4815610;29;20058;-82
2022/01/23 08:49:45;;;;;;;30.55;14.63;;;;;;;;;;4817259;29;20065;-84
2022/01/23 08:52:19;;;;;;;40.20;16.45;;;;;;;;;;4807958;29;20160;-83
2022/01/23 08:55:05;;;;;;;26.98;15.13;;;;;;;;;;4820310;29;20061;-85
2022/01/23 08:57:33;;;;;;;33.22;15.25;;;;;;;;;;4814936;29;20131;-84
2022/01/23 09:00:21;;;;;;;32.90;15.32;;;;;;;;;;4809920;29;20051;-82
2022/01/23 09:02:47;;;;;;;27.92;15.30;;;;;;;;;;4806072;29;20115;-83
2022/01/23 09:05:14;;;;;;;33.63;16.50;;;;;;;;;;4803766;29;20050;-83
2022/01/23 09:07:41;;;;;;;34.97;16.42;;;;;;;;;;4797864;29;20055;-84
2022/01/23 09:10:09;;;;;;;30.17;16.27;;;;;;;;;;4813066;29;20074;-83
2022/01/23 09:12:56;;;;;;;30.80;16.33;;;;;;;;;;4816397;29;20165;-85
2022/01/23 09:15:23;;;;;;;33.90;16.42;;;;;;;;;;4815561;29;20047;-83
2022/01/23 09:17:50;;;;;;;30.90;16.38;;;;;;;;;;4816043;29;20051;-81
2022/01/23 09:20:16;;;;;;;30.95;17.02;;;;;;;;;;4815379;29;20086;-83
2022/01/23 09:22:43;;;;;;;37.03;18.75;;;;;;;;;;4816271;29;20096;-83
2022/01/23 09:25:15;;;;;;;32.97;16.65;;;;;;;;;;4814901;29;20058;-82
2022/01/23 09:27:43;;;;;;;35.33;17.58;;;;;;;;;;4806935;29;20107;-82
2022/01/23 09:30:17;;;;;;;37.95;16.67;;;;;;;;;;4809965;29;20051;-83
2022/01/23 09:32:48;;;;;;;36.17;17.20;;;;;;;;;;4809244;29;20066;-82
2022/01/23 09:35:16;;;;;;;27.10;17.67;;;;;;;;;;4806409;29;20054;-83
2022/01/23 09:37:44;;;;;;;39.35;19.23;;;;;;;;;;4810290;29;20119;-83
2022/01/23 09:40:14;;;;;;;36.85;18.40;;;;;;;;;;4814697;29;20056;-83
2022/01/23 09:42:47;;;;;;;33.03;19.88;;;;;;;;;;4813299;29;20158;-84
2022/01/23 09:45:15;;;;;;;32.88;19.02;;;;;;;;;;4807795;29;20052;-81
2022/01/23 09:47:42;;;;;;;33.35;19.55;;;;;;;;;;4812615;29;20183;-83
2022/01/23 09:50:12;;;;;;;37.28;20.80;;;;;;;;;;4815434;29;20154;-84
2022/01/23 09:52:41;;;;;;;38.90;21.15;;;;;;;;;;4816146;29;20092;-84
2022/01/23 09:55:12;;;;;;;43.72;22.48;;;;;;;;;;4808087;29;20438;-87
2022/01/23 09:57:44;;;;;;;40.10;21.02;;;;;;;;;;4811629;29;20091;-82
2022/01/23 10:00:17;;;;;;;36.55;20.45;;;;;;;;;;4806426;29;20050;-82
2022/01/23 10:02:46;;;;;;;35.90;21.27;;;;;;;;;;4813629;29;20473;-82
2022/01/23 10:05:14;;;;;;;42.20;22.08;;;;;;;;;;4814187;29;20050;-82
2022/01/23 10:07:42;;;;;;;41.80;21.48;;;;;;;;;;4815848;29;20058;-82
2022/01/23 10:10:16;;;;;;;38.80;22.77;;;;;;;;;;4813496;29;20051;-83
2022/01/23 10:12:51;;;;;;;41.70;23.83;;;;;;;;;;4815156;29;20057;-82
2022/01/23 10:15:18;;;;;;;49.35;23.48;;;;;;;;;;4814737;29;20112;-81
2022/01/23 10:17:46;;;;;;;41.72;21.60;;;;;;;;;;4813477;29;20083;-81
2022/01/23 10:20:14;;;;;;;38.35;22.30;;;;;;;;;;4814432;29;20054;-83
2022/01/23 10:22:44;;;;;;;39.78;23.08;;;;;;;;;;4815453;29;20061;-84
2022/01/23 10:25:15;;;;;;;44.28;22.90;;;;;;;;;;4814917;29;20054;-84
2022/01/23 10:28:06;;;;;;;49.28;24.02;;;;;;;;;;4812576;29;20111;-84
2022/01/23 10:30:44;;;;;;;45.60;24.10;;;;;;;;;;4814414;29;20050;-83
2022/01/23 10:33:14;;;;;;;51.70;24.60;;;;;;;;;;4812614;29;20078;-82
2022/01/23 10:36:07;;;;;;;41.97;24.35;;;;;;;;;;4811512;29;22498;-83
2022/01/23 10:38:40;;;;;;;43.42;24.10;;;;;;;;;;4814161;29;20587;-83
2022/01/23 10:49:54;;;;;;;46.33;26.48;;;;;;;;;;4813455;29;20048;-81
2022/01/23 10:52:28;;;;;;;;;;;;;;;;;;4813079;29;20048;-82
2022/01/23 10:54:55;;;;;;;41.33;26.08;;;;;;;;;;4812917;29;19924;-81
2022/01/23 10:57:23;;;;;;;44.75;23.38;;;;;;;;;;4810040;29;20107;-83
2022/01/23 10:59:51;;;;;;;43.05;24.63;;;;;;;;;;4803952;29;20051;-83
2022/01/23 11:02:21;;;;;;;43.80;23.58;;;;;;;;;;4813963;29;20640;-83
2022/01/23 11:05:05;;;;;;;46.92;24.38;;;;;;;;;;4803628;29;20137;-83
2022/01/23 11:07:33;;;;;;;41.58;23.38;;;;;;;;;;4813477;29;20074;-83
2022/01/23 11:10:12;;;;;;;36.33;23.60;;;;;;;;;;4822123;29;20054;-83
2022/01/23 11:18:04;;;;;;;51.85;28.20;;;;;;;;;;4814396;29;20057;-83
2022/01/23 11:20:45;;;;;;;39.58;23.48;;;;;;;;;;4812221;29;20413;-82
2022/01/23 11:23:27;;;;;;;54.78;36.10;;;;;;;;;;4813338;29;20065;-83
2022/01/23 11:25:57;;;;;;;40.88;22.80;;;;;;;;;;4814552;29;20456;-83
2022/01/23 11:28:40;;;;;;;37.28;22.05;;;;;;;;;;4816784;29;21156;-83
2022/01/23 11:31:11;;;;;;;36.50;22.15;;;;;;;;;;4813931;29;20051;-82
2022/01/23 11:33:38;;;;;;;38.13;23.80;;;;;;;;;;4808439;29;20062;-83
2022/01/23 11:36:05;;;;;;;40.42;21.90;;;;;;;;;;4811225;29;20134;-82
2022/01/23 11:38:33;;;;;;;49.78;30.48;;;;;;;;;;4813018;29;20110;-83
2022/01/23 11:53:45;;;;;;;33.40;21.67;;;;;;;;;;4794335;29;20078;-82
2022/01/23 11:55:36;;;;;;;40.67;22.27;;;;;;;;;;4795818;29;20058;-82
2022/01/23 11:58:04;;;;;;;33.30;22.38;;;;;;;;;;4793511;29;20050;-82
2022/01/23 12:00:34;;;;;;;71.57;34.35;;;;;;;;;;4794764;29;20058;-82
2022/01/23 12:03:18;;;;;;;83.85;44.25;;;;;;;;;;4795916;29;20054;-82
2022/01/23 12:05:50;;;;;;;42.60;24.55;;;;;;;;;;4789052;29;20130;-83
2022/01/23 12:08:20;;;;;;;38.35;22.83;;;;;;;;;;4792041;29;20047;-81
2022/01/23 12:17:05;;;;;;;39.28;21.95;;;;;;;;;;4795523;29;20903;-81
2022/01/23 12:19:39;;;;;;;36.67;21.95;;;;;;;;;;4794027;29;20563;-83
2022/01/23 12:22:22;;;;;;;39.00;22.30;;;;;;;;;;4763999;29;20661;-82
2022/01/23 12:24:51;;;;;;;44.55;24.77;;;;;;;;;;4795335;29;20141;-82
2022/01/23 12:27:23;;;;;;;43.08;23.25;;;;;;;;;;4794914;29;20047;-83
2022/01/23 12:29:51;;;;;;;36.42;22.30;;;;;;;;;;4804966;29;20046;-80
2022/01/23 12:32:28;;;;;;;41.42;23.08;;;;;;;;;;4815761;29;20508;-79
2022/01/23 12:34:58;;;;;;;34.08;20.92;;;;;;;;;;4816196;29;20070;-83
2022/01/23 12:37:27;;;;;;;37.42;21.42;;;;;;;;;;4819742;29;20046;-83
2022/01/23 12:40:21;;;;;;;40.47;22.15;;;;;;;;;;4820198;29;20137;-81
2022/01/23 12:43:06;;;;;;;33.75;22.55;;;;;;;;;;4820239;29;20050;-83
2022/01/23 12:45:59;;;;;;;39.60;20.92;;;;;;;;;;4820126;29;20057;-80
2022/01/23 12:48:25;;;;;;;36.45;21.55;;;;;;;;;;4817284;29;20098;-81
2022/01/23 12:50:58;;;;;;;40.10;21.23;;;;;;;;;;4817979;29;20054;-81
2022/01/23 12:53:43;;;;;;;36.67;21.48;;;;;;;;;;4804621;29;20442;-81
2022/01/23 12:56:13;;;;;;;35.25;21.98;;;;;;;;;;4819613;29;20047;-83
2022/01/23 12:58:41;;;;;;;34.17;21.05;;;;;;;;;;4819102;29;20428;-82
2022/01/23 13:01:21;;;;;;;35.78;21.90;;;;;;;;;;4816878;29;20480;-84
2022/01/23 13:03:59;;;;;;;36.03;21.05;;;;;;;;;;4817407;29;20078;-83
2022/01/23 13:06:29;;;;;;;37.53;21.55;;;;;;;;;;4816442;29;20482;-80
2022/01/23 13:12:32;;;;;;;32.28;20.52;;;;;;;;;;4810468;29;20046;-81
2022/01/23 13:31:16;;;;;;;39.38;22.35;;;;;;;;;;4809135;29;20053;-82
2022/01/23 13:33:43;;;;;;;40.83;21.65;;;;;;;;;;4808128;29;20130;-81
2022/01/23 13:36:11;;;;;;;39.63;21.15;;;;;;;;;;4807004;29;20047;-82
2022/01/23 13:38:39;;;;;;;39.75;22.40;;;;;;;;;;4804838;29;20853;-82
2022/01/23 13:41:23;;;;;;;46.25;24.13;;;;;;;;;;4808344;29;20051;-82
2022/01/23 13:59:57;;;;;;;42.15;23.63;;;;;;;;;;4818953;29;20126;-82
2022/01/23 14:02:32;;;;;;;40.28;22.75;;;;;;;;;;4813829;29;20107;-79
2022/01/23 14:05:07;;;;;;;52.85;31.70;;;;;;;;;;4820920;29;20495;-79
2022/01/23 14:07:35;;;;;;;41.80;22.63;;;;;;;;;;4817150;29;20082;-79
2022/01/23 14:10:27;;;;;;;41.75;23.27;;;;;;;;;;4813220;29;20080;-80
2022/01/23 14:13:03;;;;;;;44.50;25.00;;;;;;;;;;4814489;29;20119;-78
2022/01/23 14:15:30;;;;;;;42.40;22.42;;;;;;;;;;4813500;29;20050;-79
2022/01/23 14:18:05;;;;;;;40.55;22.92;;;;;;;;;;4814410;29;20094;-79
2022/01/23 14:20:35;;;;;;;42.03;23.65;;;;;;;;;;4814896;29;20051;-80
2022/01/23 14:23:18;;;;;;;40.25;22.40;;;;;;;;;;4805249;29;20110;-79
2022/01/23 14:25:57;;;;;;;37.67;21.90;;;;;;;;;;4814808;29;20046;-79
2022/01/23 14:28:27;;;;;;;;;;;;;;;;;;4813657;29;20491;-79
2022/01/23 14:30:58;;;;;;;39.25;22.80;;;;;;;;;;4814214;29;19977;-80
2022/01/23 14:33:32;;;;;;;41.40;22.33;;;;;;;;;;4812949;29;20167;-82
2022/01/23 14:36:28;;;;;;;39.85;20.75;;;;;;;;;;4817072;29;20057;-80
2022/01/23 14:39:08;;;;;;;55.38;32.47;;;;;;;;;;4818507;29;20106;-79
2022/01/23 14:41:38;;;;;;;38.05;23.00;;;;;;;;;;4793740;29;20411;-78
2022/01/23 14:44:23;;;;;;;41.72;23.77;;;;;;;;;;4815420;29;20119;-79
2022/01/23 14:46:56;;;;;;;47.42;26.08;;;;;;;;;;4815263;29;20107;-79
2022/01/23 14:49:26;;;;;;;38.22;21.95;;;;;;;;;;4820701;29;20102;-79
2022/01/23 14:51:55;;;;;;;42.38;22.95;;;;;;;;;;4821096;29;20488;-80
2022/01/23 14:54:24;;;;;;;36.87;20.83;;;;;;;;;;4824124;29;20062;-81
2022/01/23 14:56:51;;;;;;;36.70;21.98;;;;;;;;;;4816843;29;20837;-80
2022/01/23 14:59:18;;;;;;;41.70;22.98;;;;;;;;;;4806163;29;20057;-80
2022/01/23 15:01:46;;;;;;;39.92;23.35;;;;;;;;;;4813051;29;20054;-80
2022/01/23 15:04:15;;;;;;;31.83;21.42;;;;;;;;;;4811422;29;20595;-81
2022/01/23 15:06:47;;;;;;;37.58;21.38;;;;;;;;;;4816943;29;20077;-79
2022/01/23 15:09:16;;;;;;;39.03;21.33;;;;;;;;;;4824583;29;20042;-80
2022/01/23 15:11:43;;;;;;;;;;;;;;;;;;4820854;29;20054;-80
2022/01/23 15:14:12;;;;;;;37.67;21.25;;;;;;;;;;4819725;29;20299;-82
2022/01/23 15:16:40;;;;;;;35.22;21.13;;;;;;;;;;4817663;29;20058;-80
2022/01/23 15:19:09;;;;;;;37.93;20.73;;;;;;;;;;4818000;29;20092;-80
2022/01/23 15:21:36;;;;;;;36.05;21.25;;;;;;;;;;4818045;29;20078;-79
2022/01/23 15:24:03;;;;;;;48.42;23.65;;;;;;;;;;4820919;29;20083;-78
2022/01/23 15:26:34;;;;;;;37.53;20.90;;;;;;;;;;4825939;29;20066;-79
2022/01/23 15:29:04;;;;;;;44.65;24.67;;;;;;;;;;4803995;29;20058;-80
2022/01/23 15:31:31;;;;;;;50.63;23.60;;;;;;;;;;4818329;29;20103;-79
2022/01/23 15:33:57;;;;;;;36.83;20.75;;;;;;;;;;4817647;29;20047;-80
2022/01/23 15:36:24;;;;;;;48.40;24.65;;;;;;;;;;4817264;29;20111;-81
2022/01/23 15:38:51;;;;;;;64.05;32.47;;;;;;;;;;4817680;29;20107;-80
2022/01/23 15:41:17;;;;;;;37.05;21.95;;;;;;;;;;4815597;29;20140;-81
2022/01/23 15:43:44;;;;;;;46.88;24.48;;;;;;;;;;4817895;29;20119;-80
2022/01/23 15:46:13;;;;;;;35.22;22.35;;;;;;;;;;4815237;29;20141;-80
2022/01/23 15:48:41;;;;;;;40.80;21.13;;;;;;;;;;4814410;29;20058;-81
2022/01/23 15:51:07;;;;;;;34.03;20.85;;;;;;;;;;4813538;29;20575;-81
2022/01/23 15:53:34;;;;;;;37.60;21.35;;;;;;;;;;4813740;29;20051;-82
2022/01/23 15:56:01;;;;;;;37.15;19.80;;;;;;;;;;4817021;29;20784;-81
2022/01/23 15:58:28;;;;;;;40.53;20.67;;;;;;;;;;4817724;29;20093;-81
2022/01/23 16:00:56;;;;;;;40.58;20.25;;;;;;;;;;4818414;29;20058;-81
2022/01/23 16:03:26;;;;;;;43.83;21.17;;;;;;;;;;4816848;29;20338;-80
2022/01/23 16:05:54;;;;;;;32.25;20.50;;;;;;;;;;4818428;29;20539;-81
2022/01/23 16:08:21;;;;;;;38.43;21.07;;;;;;;;;;4818405;29;20062;-81
2022/01/23 16:10:47;;;;;;;39.80;20.75;;;;;;;;;;4820907;29;20146;-80
2022/01/23 16:13:14;;;;;;;37.70;21.02;;;;;;;;;;4818069;29;20508;-82
2022/01/23 16:15:43;;;;;;;35.65;20.25;;;;;;;;;;4820891;29;20558;-80
2022/01/23 16:18:11;;;;;;;42.13;21.08;;;;;;;;;;4815834;29;20050;-80
2022/01/23 16:20:39;;;;;;;40.85;20.65;;;;;;;;;;4827597;29;20076;-80
2022/01/23 16:23:06;;;;;;;38.47;20.83;;;;;;;;;;4828293;29;20069;-80
2022/01/23 16:25:34;;;;;;;41.92;22.20;;;;;;;;;;4831488;29;20046;-79
2022/01/23 16:28:01;;;;;;;42.92;23.48;;;;;;;;;;4821075;29;20127;-81
2022/01/23 16:30:43;;;;;;;54.45;24.52;;;;;;;;;;4819409;29;20062;-79
2022/01/23 16:33:10;;;;;;;53.13;28.80;;;;;;;;;;4818129;29;20056;-80
2022/01/23 16:35:36;;;;;;;54.30;29.23;;;;;;;;;;4816658;29;20471;-79
2022/01/23 16:38:04;;;;;;;53.70;28.88;;;;;;;;;;4807906;29;20499;-86
2022/01/23 16:40:31;;;;;;;48.85;26.80;;;;;;;;;;4795729;29;20524;-86
2022/01/23 16:42:58;;;;;;;55.63;29.58;;;;;;;;;;4812339;29;20066;-87
2022/01/23 16:45:25;;;;;;;49.92;29.45;;;;;;;;;;4817644;29;20062;-85
2022/01/23 16:47:53;;;;;;;50.80;28.85;;;;;;;;;;4824782;29;20054;-88
2022/01/23 16:50:24;;;;;;;;;;;;;;;;;;4816441;29;20060;-87
2022/01/23 16:52:54;;;;;;;47.63;26.15;;;;;;;;;;4824659;29;19939;-85
2022/01/23 16:55:21;;;;;;;50.35;27.13;;;;;;;;;;4804249;29;20112;-85
2022/01/23 16:57:48;;;;;;;50.75;31.52;;;;;;;;;;4810388;29;20497;-85
2022/01/23 17:00:15;;;;;;;50.95;28.85;;;;;;;;;;4815112;29;20050;-84
2022/01/23 17:03:05;;;;;;;59.75;29.92;;;;;;;;;;4829141;29;20155;-84
2022/01/23 17:05:33;;;;;;;63.17;34.08;;;;;;;;;;4833872;29;20103;-83
2022/01/23 17:08:00;;;;;;;66.22;37.00;;;;;;;;;;4832967;29;20064;-84
2022/01/23 17:10:26;;;;;;;59.78;28.83;;;;;;;;;;4833626;29;20054;-85
2022/01/23 17:12:53;;;;;;;55.45;30.88;;;;;;;;;;4826589;29;20093;-84
2022/01/23 17:15:20;;;;;;;54.58;27.95;;;;;;;;;;4830802;29;20753;-84
2022/01/23 17:17:47;;;;;;;58.85;30.50;;;;;;;;;;4806681;29;20045;-84
2022/01/23 17:20:15;;;;;;;53.45;27.25;;;;;;;;;;4805287;29;20427;-83
2022/01/23 17:22:53;;;;;;;48.35;25.58;;;;;;;;;;4820756;29;20150;-86
2022/01/23 17:25:34;;;;;;;55.30;27.00;;;;;;;;;;4815364;29;20054;-86
2022/01/23 17:28:21;;;;;;;50.55;26.10;;;;;;;;;;4832367;29;20054;-85
2022/01/23 17:30:55;;;;;;;60.78;27.63;;;;;;;;;;4814063;29;20061;-87
2022/01/23 17:33:41;;;;;;;55.53;26.95;;;;;;;;;;4810023;29;20051;-86
2022/01/23 17:36:30;;;;;;;60.08;30.60;;;;;;;;;;4808253;29;20049;-88
2022/01/23 17:39:21;;;;;;;58.40;26.55;;;;;;;;;;4812298;29;20065;-84
2022/01/23 17:41:49;;;;;;;;;;;;;;;;;;4819672;29;20058;-85
2022/01/23 17:44:16;;;;;;;55.40;28.85;;;;;;;;;;4824132;29;20023;-86
2022/01/23 17:46:45;;;;;;;58.85;30.60;;;;;;;;;;4816452;29;20061;-85
2022/01/23 17:49:22;;;;;;;54.47;28.27;;;;;;;;;;4829215;29;20065;-85
2022/01/23 17:51:49;;;;;;;59.08;27.70;;;;;;;;;;4832698;29;20133;-85
2022/01/23 17:54:16;;;;;;;63.75;28.25;;;;;;;;;;4831534;29;20046;-83
2022/01/23 17:56:42;;;;;;;54.70;30.10;;;;;;;;;;4832701;29;20449;-82
2022/01/23 17:59:09;;;;;;;56.40;28.70;;;;;;;;;;4829994;29;20080;-83
2022/01/23 18:01:36;;;;;;;56.72;29.92;;;;;;;;;;4832335;29;20058;-83
2022/01/23 18:04:03;;;;;;;54.10;29.77;;;;;;;;;;4833617;29;20054;-83
2022/01/23 18:06:32;;;;;;;65.70;29.58;;;;;;;;;;4831998;29;20054;-84
2022/01/23 18:09:00;;;;;;;62.55;34.05;;;;;;;;;;4831395;29;20050;-84
2022/01/23 18:11:27;;;;;;;58.38;28.45;;;;;;;;;;4823491;29;20129;-84
2022/01/23 18:13:59;;;;;;;55.92;29.38;;;;;;;;;;4818069;29;20065;-83
2022/01/23 18:16:28;;;;;;;125.72;53.95;;;;;;;;;;4824933;29;20104;-82
2022/01/23 18:18:56;;;;;;;94.30;46.30;;;;;;;;;;4816586;29;20102;-83
2022/01/23 18:21:43;;;;;;;103.13;49.75;;;;;;;;;;4831360;29;20745;-82
2022/01/23 18:24:10;;;;;;;126.35;61.40;;;;;;;;;;4814838;29;20057;-82
2022/01/23 18:26:42;;;;;;;114.70;58.78;;;;;;;;;;4833418;29;20053;-82
2022/01/23 18:29:10;;;;;;;84.63;44.58;;;;;;;;;;4831307;29;20057;-82
2022/01/23 18:31:37;;;;;;;75.00;40.28;;;;;;;;;;4828512;29;20057;-83
2022/01/23 18:34:05;;;;;;;72.10;38.83;;;;;;;;;;4828086;29;20102;-82
2022/01/23 18:36:34;;;;;;;74.60;40.17;;;;;;;;;;4832568;29;20185;-84
2022/01/23 18:39:05;;;;;;;78.13;41.03;;;;;;;;;;4820604;29;20072;-82
2022/01/23 18:41:32;;;;;;;74.15;39.03;;;;;;;;;;4832394;29;20102;-81
2022/01/23 18:44:00;;;;;;;74.70;40.10;;;;;;;;;;4820921;29;20489;-82
2022/01/23 18:46:32;;;;;;;74.15;36.67;;;;;;;;;;4810650;29;20048;-82
2022/01/23 18:49:00;;;;;;;62.53;32.38;;;;;;;;;;4810364;29;20169;-82
2022/01/23 18:51:28;;;;;;;62.40;33.75;;;;;;;;;;4811117;29;20054;-80
2022/01/23 18:54:06;;;;;;;85.70;42.30;;;;;;;;;;4810125;29;20099;-79
2022/01/23 18:56:43;;;;;;;70.38;36.33;;;;;;;;;;4812189;29;20053;-80
2022/01/23 18:59:14;;;;;;;61.63;32.83;;;;;;;;;;4809835;29;20135;-80
2022/01/23 19:01:45;;;;;;;57.03;30.08;;;;;;;;;;4809656;29;20046;-81
2022/01/23 19:04:13;;;;;;;59.35;32.65;;;;;;;;;;4811705;29;20134;-81
2022/01/23 19:07:03;;;;;;;65.05;33.33;;;;;;;;;;4813079;29;20917;-81
2022/01/23 19:09:33;;;;;;;62.03;30.00;;;;;;;;;;4812593;29;20050;-80
2022/01/23 19:12:03;;;;;;;65.22;32.05;;;;;;;;;;4812606;29;20059;-81
2022/01/23 19:14:30;;;;;;;63.28;30.40;;;;;;;;;;4794799;29;20050;-81
2022/01/23 19:16:58;;;;;;;54.53;30.55;;;;;;;;;;4812509;29;20062;-81
2022/01/23 19:19:45;;;;;;;57.25;29.05;;;;;;;;;;4814157;29;20481;-81
2022/01/23 19:22:14;;;;;;;61.67;31.00;;;;;;;;;;4813722;29;20051;-81
2022/01/23 19:24:41;;;;;;;62.92;31.88;;;;;;;;;;4814612;29;20103;-82
2022/01/23 19:27:13;;;;;;;61.95;31.10;;;;;;;;;;4813594;29;20094;-82
2022/01/23 19:29:42;;;;;;;68.00;31.67;;;;;;;;;;4813265;29;20124;-82
2022/01/23 19:32:10;;;;;;;58.20;31.35;;;;;;;;;;4816316;29;20424;-82
2022/01/23 19:34:37;;;;;;;65.35;31.23;;;;;;;;;;4801306;29;20520;-81
2022/01/23 19:37:05;;;;;;;60.85;30.38;;;;;;;;;;4816278;29;20526;-81
2022/01/23 19:39:38;;;;;;;65.10;30.92;;;;;;;;;;4816991;29;20061;-82
2022/01/23 19:44:41;;;;;;;59.70;29.98;;;;;;;;;;4815050;29;20050;-82
2022/01/23 19:47:22;;;;;;;65.80;31.80;;;;;;;;;;4814574;29;20126;-83
2022/01/23 19:49:49;;;;;;;66.72;30.73;;;;;;;;;;4816563;29;20132;-84
2022/01/23 19:52:18;;;;;;;65.18;31.52;;;;;;;;;;4805081;29;20046;-83
2022/01/23 19:54:46;;;;;;;66.05;31.38;;;;;;;;;;4815476;29;20050;-82
2022/01/23 19:57:17;;;;;;;67.82;32.80;;;;;;;;;;4815135;29;20118;-82
2022/01/23 19:59:45;;;;;;;67.05;31.33;;;;;;;;;;4815374;29;20797;-83
2022/01/23 20:02:15;;;;;;;75.80;35.03;;;;;;;;;;4815171;29;20459;-83
2022/01/23 20:04:43;;;;;;;67.10;33.05;;;;;;;;;;4813549;29;20641;-83
2022/01/23 20:07:10;;;;;;;65.78;30.60;;;;;;;;;;4812660;29;20050;-84
2022/01/23 20:09:46;;;;;;;65.43;30.48;;;;;;;;;;4815840;29;20062;-82
2022/01/23 20:14:59;;;;;;;67.13;32.13;;;;;;;;;;4815083;29;20095;-84
2022/01/23 20:17:26;;;;;;;71.85;33.63;;;;;;;;;;4816754;29;20504;-84
2022/01/23 20:19:53;;;;;;;69.35;31.27;;;;;;;;;;4815188;29;20046;-84
2022/01/23 20:22:20;;;;;;;71.00;32.58;;;;;;;;;;4815149;29;20050;-83
2022/01/23 20:24:47;;;;;;;62.45;30.90;;;;;;;;;;4808425;29;20050;-82
2022/01/23 20:27:14;;;;;;;69.53;31.40;;;;;;;;;;4810650;29;20077;-84
2022/01/23 20:29:41;;;;;;;70.30;32.83;;;;;;;;;;4815280;29;20155;-84
2022/01/23 20:32:07;;;;;;;64.72;30.60;;;;;;;;;;4815276;29;20046;-83
2022/01/23 20:34:34;;;;;;;69.25;32.38;;;;;;;;;;4816509;29;20050;-81
2022/01/23 20:37:03;;;;;;;64.68;30.83;;;;;;;;;;4815632;29;20051;-81
2022/01/23 20:39:32;;;;;;;66.90;31.85;;;;;;;;;;4816131;29;20561;-82
2022/01/23 20:41:59;;;;;;;66.05;31.20;;;;;;;;;;4814162;29;20049;-82
2022/01/23 20:44:26;;;;;;;65.82;30.42;;;;;;;;;;4808542;29;20111;-83
2022/01/23 20:46:52;;;;;;;67.53;30.33;;;;;;;;;;4815045;29;20182;-80
2022/01/23 20:49:20;;;;;;;72.82;30.38;;;;;;;;;;4815587;29;20322;-81
2022/01/23 20:51:53;;;;;;;68.18;31.30;;;;;;;;;;4814845;29;20589;-82
2022/01/23 20:54:20;;;;;;;66.80;31.20;;;;;;;;;;4815079;29;20115;-82
2022/01/23 20:56:46;;;;;;;72.75;32.30;;;;;;;;;;4813948;29;20097;-82
2022/01/23 20:59:14;;;;;;;69.88;32.38;;;;;;;;;;4816022;29;20734;-84
2022/01/23 21:01:40;;;;;;;80.18;34.17;;;;;;;;;;4816858;29;20464;-83
2022/01/23 21:04:07;;;;;;;80.38;34.80;;;;;;;;;;4815772;29;20054;-83
2022/01/23 21:06:34;;;;;;;77.07;32.95;;;;;;;;;;4816163;29;20283;-82
2022/01/23 21:09:01;;;;;;;86.82;36.17;;;;;;;;;;4806241;29;20135;-82
2022/01/23 21:11:29;;;;;;;76.95;33.53;;;;;;;;;;4813690;29;20385;-83
2022/01/23 21:40:39;;;;;;;83.55;34.00;;;;;;;;;;4826344;29;20050;-81
2022/01/23 21:43:05;;;;;;;81.88;33.63;;;;;;;;;;4826113;29;20098;-81
2022/01/23 21:45:32;;;;;;;86.53;34.80;;;;;;;;;;4817317;29;20046;-83
2022/01/23 21:47:59;;;;;;;86.53;34.47;;;;;;;;;;4818723;29;20053;-83
2022/01/23 21:50:42;;;;;;;89.97;36.05;;;;;;;;;;4818134;29;20122;-83
2022/01/23 21:53:09;;;;;;;98.30;37.53;;;;;;;;;;4816315;29;20625;-84
2022/01/23 21:55:37;;;;;;;93.15;35.90;;;;;;;;;;4813210;29;20568;-84
2022/01/23 21:58:04;;;;;;;93.82;36.47;;;;;;;;;;4803473;29;20061;-85
2022/01/23 22:00:30;;;;;;;99.00;37.60;;;;;;;;;;4817641;29;20062;-85
2022/01/23 22:02:57;;;;;;;94.82;37.45;;;;;;;;;;4821802;29;20132;-84
2022/01/23 22:05:25;;;;;;;99.88;39.50;;;;;;;;;;4814410;29;20057;-83
2022/01/23 22:07:52;;;;;;;103.18;39.63;;;;;;;;;;4826000;29;20042;-84
2022/01/23 22:18:19;;;;;;;111.65;39.80;;;;;;;;;;4822153;29;20443;-83
2022/01/23 22:20:46;;;;;;;108.60;38.10;;;;;;;;;;4826472;29;20046;-84
2022/01/23 22:23:18;;;;;;;107.80;39.45;;;;;;;;;;4824412;29;20042;-84
2022/01/23 22:28:30;;;;;;;115.45;42.03;;;;;;;;;;4826314;29;20046;-84
2022/01/23 22:30:57;;;;;;;115.15;40.60;;;;;;;;;;4825364;29;20539;-83
2022/01/23 22:33:24;;;;;;;118.57;40.45;;;;;;;;;;4825728;29;20066;-82
2022/01/23 22:35:54;;;;;;;118.55;40.60;;;;;;;;;;4825590;29;20079;-83
2022/01/23 22:38:29;;;;;;;114.53;40.47;;;;;;;;;;4825943;29;20103;-83
2022/01/23 22:40:57;;;;;;;116.30;41.40;;;;;;;;;;4828047;29;20046;-84
2022/01/23 22:43:24;;;;;;;113.97;41.22;;;;;;;;;;4825414;29;20058;-85
2022/01/23 22:48:29;;;;;;;115.78;39.92;;;;;;;;;;4824076;29;20054;-84
2022/01/23 22:50:56;;;;;;;120.00;42.83;;;;;;;;;;4826919;29;20050;-82
2022/01/23 22:53:23;;;;;;;120.07;42.60;;;;;;;;;;4826331;29;20050;-84
2022/01/23 22:55:49;;;;;;;121.05;42.00;;;;;;;;;;4811490;29;20050;-82
2022/01/23 22:58:16;;;;;;;122.07;43.60;;;;;;;;;;4811657;29;20062;-85
